Time;durP1;ratioP1;P1;durP2;ratioP2;P2;SDS_P1;SDS_P2;PMS_P1;PMS_P2;Temp;Humidity;BMP_temperature;BMP_pressure;BME280_temperature;BME280_humidity;BME280_pressure;Samples;Min_cycle;Max_cycle;Signal;HPM_P1;HPM_P2
2021/12/20 00:00:26;;;;;;;17.40;11.87;;;8.80;99.90;;;;;;5074877;28;20199;-74
2021/12/20 00:02:56;;;;;;;22.30;12.30;;;8.90;99.90;;;;;;5074773;28;20628;-74
2021/12/20 00:05:22;;;;;;;17.93;11.17;;;8.80;99.90;;;;;;5074695;28;20173;-76
2021/12/20 00:07:48;;;;;;;19.67;11.53;;;8.60;99.90;;;;;;5075045;28;20172;-73
2021/12/20 00:10:15;;;;;;;18.67;10.53;;;8.50;99.90;;;;;;5073393;28;20624;-73
2021/12/20 00:12:42;;;;;;;20.80;11.23;;;8.50;99.90;;;;;;5073086;28;20215;-74
2021/12/20 00:15:08;;;;;;;20.63;10.73;;;8.50;99.90;;;;;;5074917;28;20651;-74
2021/12/20 00:17:34;;;;;;;20.77;11.20;;;8.40;99.90;;;;;;5074672;28;20263;-74
2021/12/20 00:20:00;;;;;;;21.63;11.97;;;8.20;99.90;;;;;;5073178;28;20667;-74
2021/12/20 00:22:25;;;;;;;20.27;11.70;;;8.20;99.90;;;;;;5074797;28;20208;-74
2021/12/20 00:24:51;;;;;;;22.37;10.87;;;8.20;99.90;;;;;;5074370;28;20225;-74
2021/12/20 00:27:19;;;;;;;21.53;10.70;;;8.20;99.90;;;;;;5074088;28;20176;-73
2021/12/20 00:29:48;;;;;;;24.13;11.23;;;8.30;99.90;;;;;;5074392;28;20181;-75
2021/12/20 00:32:16;;;;;;;23.57;10.87;;;8.30;99.90;;;;;;5074358;28;20207;-74
2021/12/20 00:34:42;;;;;;;18.90;11.57;;;8.40;99.90;;;;;;5074118;28;20184;-74
2021/12/20 00:40:20;;;;;;;17.33;10.53;;;8.60;99.90;;;;;;5073127;28;20179;-75
2021/12/20 00:42:40;;;;;;;22.00;10.60;;;8.60;99.90;;;;;;5073642;28;20180;-75
2021/12/20 00:45:07;;;;;;;21.20;10.27;;;8.60;99.90;;;;;;5073929;28;20547;-74
2021/12/20 00:47:33;;;;;;;16.83;10.30;;;8.70;99.90;;;;;;5074306;28;20172;-74
2021/12/20 00:49:59;;;;;;;15.73;9.63;;;8.80;99.90;;;;;;5074075;28;20168;-74
2021/12/20 00:52:25;;;;;;;18.20;9.77;;;8.80;99.90;;;;;;5073861;28;20616;-75
2021/12/20 00:54:51;;;;;;;18.03;9.63;;;8.90;99.90;;;;;;5074207;28;20168;-75
2021/12/20 00:57:16;;;;;;;18.90;9.50;;;8.80;99.90;;;;;;5073526;28;20188;-75
2021/12/20 00:59:42;;;;;;;17.40;10.50;;;8.80;99.90;;;;;;5073504;28;20185;-75
2021/12/20 01:02:08;;;;;;;17.67;9.17;;;8.90;99.90;;;;;;5073777;28;20204;-74
2021/12/20 01:04:34;;;;;;;17.03;8.63;;;8.90;99.90;;;;;;5073773;28;20608;-74
2021/12/20 01:06:59;;;;;;;13.20;7.97;;;8.90;99.90;;;;;;5073706;28;20532;-74
2021/12/20 01:09:25;;;;;;;48.60;34.43;;;8.90;99.90;;;;;;5073448;28;20177;-74
2021/12/20 01:11:53;;;;;;;25.80;15.10;;;8.80;99.90;;;;;;5073409;28;20651;-75
2021/12/20 01:14:25;;;;;;;18.57;9.90;;;8.80;99.90;;;;;;5073412;28;20169;-74
2021/12/20 01:16:51;;;;;;;12.57;7.73;;;8.70;99.90;;;;;;5073600;28;20176;-73
2021/12/20 01:19:17;;;;;;;17.37;7.43;;;8.70;99.90;;;;;;5073435;28;20246;-74
2021/12/20 01:21:43;;;;;;;11.53;7.90;;;8.50;99.90;;;;;;5073332;28;20204;-74
2021/12/20 01:24:09;;;;;;;15.70;7.87;;;8.40;99.90;;;;;;5072817;28;20188;-74
2021/12/20 01:26:34;;;;;;;15.83;7.40;;;8.40;99.90;;;;;;5073326;28;20283;-74
2021/12/20 01:29:00;;;;;;;19.03;8.23;;;8.10;99.90;;;;;;5073363;28;20535;-74
2021/12/20 01:31:26;;;;;;;12.80;7.70;;;8.10;99.90;;;;;;5073368;28;20184;-74
2021/12/20 01:33:52;;;;;;;12.03;7.40;;;8.30;99.90;;;;;;5073467;28;20168;-74
2021/12/20 01:36:18;;;;;;;16.97;7.83;;;8.20;99.90;;;;;;5073227;28;20534;-73
2021/12/20 01:38:44;;;;;;;18.10;8.27;;;8.20;99.90;;;;;;5072808;28;20165;-75
2021/12/20 01:41:11;;;;;;;12.20;7.27;;;8.10;99.90;;;;;;5072979;28;20283;-74
2021/12/20 01:43:37;;;;;;;12.07;7.73;;;8.00;99.90;;;;;;5073154;28;20177;-74
2021/12/20 01:46:04;;;;;;;11.17;7.87;;;7.90;99.90;;;;;;5072981;28;20239;-75
2021/12/20 01:48:31;;;;;;;12.93;8.20;;;8.00;99.90;;;;;;5073368;28;20188;-73
2021/12/20 01:53:33;;;;;;;14.57;7.83;;;8.00;99.90;;;;;;5070766;28;20173;-73
2021/12/20 01:55:59;;;;;;;13.10;8.20;;;8.00;99.90;;;;;;5073015;28;20165;-74
2021/12/20 01:58:27;;;;;;;16.07;8.00;;;8.00;99.90;;;;;;5073085;28;20168;-74
2021/12/20 02:03:34;;;;;;;15.43;8.33;;;8.20;99.90;;;;;;5073180;28;20529;-73
2021/12/20 02:06:03;;;;;;;19.20;9.17;;;8.20;99.90;;;;;;5072807;28;20164;-74
2021/12/20 02:08:29;;;;;;;14.30;9.43;;;8.10;99.90;;;;;;5072389;28;20297;-74
2021/12/20 02:11:03;;;;;;;18.73;9.80;;;8.30;99.90;;;;;;5072950;28;20204;-74
2021/12/20 02:13:30;;;;;;;14.57;10.13;;;8.30;99.90;;;;;;5073162;28;20180;-74
2021/12/20 02:15:59;;;;;;;19.73;10.37;;;8.40;99.90;;;;;;5072860;28;20176;-74
2021/12/20 02:18:26;;;;;;;18.67;9.47;;;8.40;99.90;;;;;;5072873;28;20259;-74
2021/12/20 02:20:52;;;;;;;17.40;10.30;;;8.30;99.90;;;;;;5072456;28;20571;-73
2021/12/20 02:23:18;;;;;;;16.37;10.47;;;8.20;99.90;;;;;;5072415;28;20263;-74
2021/12/20 02:25:44;;;;;;;15.13;10.57;;;8.20;99.90;;;;;;5072472;28;20231;-74
2021/12/20 02:28:19;;;;;;;20.37;10.87;;;8.10;99.90;;;;;;5072797;28;20535;-74
2021/12/20 02:36:53;;;;;;;20.50;11.10;;;8.20;99.90;;;;;;5071510;28;20198;-73
2021/12/20 02:38:49;;;;;;;20.70;11.20;;;8.20;99.90;;;;;;5072244;28;20570;-73
2021/12/20 02:41:22;;;;;;;22.57;11.30;;;8.10;99.90;;;;;;5072631;28;20220;-73
2021/12/20 02:43:55;;;;;;;22.63;11.00;;;8.00;99.90;;;;;;5072490;28;20248;-73
2021/12/20 02:48:58;;;;;;;21.57;11.07;;;7.80;99.90;;;;;;5072451;28;20172;-74
2021/12/20 02:51:26;;;;;;;23.67;11.37;;;7.80;99.90;;;;;;5072220;28;20173;-75
2021/12/20 02:53:52;;;;;;;24.23;12.00;;;7.80;99.90;;;;;;5072528;28;20161;-73
2021/12/20 02:56:18;;;;;;;20.30;11.13;;;7.90;99.90;;;;;;5072298;28;20195;-73
2021/12/20 02:58:44;;;;;;;25.17;11.80;;;7.90;99.90;;;;;;5072347;28;20239;-75
2021/12/20 03:01:10;;;;;;;21.37;11.43;;;7.90;99.90;;;;;;5072244;28;20197;-74
2021/12/20 03:03:35;;;;;;;23.87;11.57;;;7.90;99.90;;;;;;5072305;28;20230;-74
2021/12/20 03:06:13;;;;;;;20.53;10.80;;;7.80;99.90;;;;;;5074548;28;20573;-74
2021/12/20 03:08:43;;;;;;;20.00;11.47;;;7.80;99.90;;;;;;5075955;28;20169;-73
2021/12/20 03:11:09;;;;;;;18.30;10.33;;;7.80;99.90;;;;;;5076169;28;20226;-74
2021/12/20 03:13:35;;;;;;;25.53;10.47;;;7.90;99.90;;;;;;5075973;28;20177;-74
2021/12/20 03:16:01;;;;;;;20.67;10.67;;;7.90;99.90;;;;;;5075761;28;20208;-74
2021/12/20 03:18:26;;;;;;;18.33;10.47;;;7.80;99.90;;;;;;5074619;28;20169;-74
2021/12/20 03:20:52;;;;;;;18.27;9.67;;;7.90;99.90;;;;;;5075202;28;20609;-74
2021/12/20 03:23:18;;;;;;;14.90;9.03;;;7.90;99.90;;;;;;5075629;28;20644;-73
2021/12/20 03:25:43;;;;;;;17.53;9.10;;;7.70;99.90;;;;;;5075339;28;20224;-74
2021/12/20 03:28:09;;;;;;;13.77;9.37;;;7.70;99.90;;;;;;5075820;28;20200;-74
2021/12/20 03:30:34;;;;;;;13.30;8.00;;;7.60;99.90;;;;;;5075637;28;20707;-74
2021/12/20 03:33:00;;;;;;;13.60;7.93;;;7.70;99.90;;;;;;5075582;28;20164;-73
2021/12/20 03:35:26;;;;;;;13.33;7.23;;;7.50;99.90;;;;;;5075002;28;20187;-73
2021/12/20 03:37:52;;;;;;;16.47;6.80;;;7.60;99.90;;;;;;5075463;28;20244;-73
2021/12/20 03:40:18;;;;;;;10.83;6.93;;;7.50;99.90;;;;;;5075161;28;20261;-73
2021/12/20 03:42:45;;;;;;;14.27;7.47;;;7.50;99.90;;;;;;5075571;28;20616;-73
2021/12/20 03:45:13;;;;;;;12.77;5.93;;;7.50;99.90;;;;;;5075412;28;20232;-73
2021/12/20 03:47:40;;;;;;;9.33;6.23;;;7.40;99.90;;;;;;5075343;28;20176;-73
2021/12/20 03:50:07;;;;;;;10.67;6.83;;;7.50;99.90;;;;;;5074776;28;20169;-73
2021/12/20 03:52:32;;;;;;;10.70;6.50;;;7.50;99.90;;;;;;5075072;28;20177;-73
2021/12/20 03:54:59;;;;;;;10.00;6.93;;;7.60;99.90;;;;;;5075213;28;20662;-73
2021/12/20 03:57:25;;;;;;;14.33;6.40;;;7.70;99.90;;;;;;5075092;28;20214;-73
2021/12/20 03:59:53;;;;;;;13.20;7.03;;;7.70;99.90;;;;;;5074739;28;20203;-74
2021/12/20 04:02:20;;;;;;;10.60;6.60;;;7.90;99.90;;;;;;5074993;28;20507;-75
2021/12/20 04:04:46;;;;;;;12.57;7.50;;;7.80;99.90;;;;;;5074773;28;20165;-73
2021/12/20 04:07:12;;;;;;;16.43;8.93;;;7.80;99.90;;;;;;5074811;28;20177;-73
2021/12/20 04:09:38;;;;;;;12.17;8.00;;;7.60;99.90;;;;;;5074577;28;20219;-73
2021/12/20 04:12:04;;;;;;;11.73;6.63;;;7.60;99.90;;;;;;5074469;28;20164;-74
2021/12/20 04:14:29;;;;;;;12.40;7.10;;;7.60;99.90;;;;;;5074602;28;20165;-73
2021/12/20 04:16:55;;;;;;;11.83;7.20;;;7.70;99.90;;;;;;5073780;28;20176;-73
2021/12/20 04:19:21;;;;;;;12.57;8.10;;;7.70;99.90;;;;;;5072773;28;20195;-73
2021/12/20 04:21:46;;;;;;;13.77;8.47;;;7.70;99.90;;;;;;5072567;28;20211;-73
2021/12/20 04:24:12;;;;;;;12.63;8.87;;;7.60;99.90;;;;;;5074330;28;20192;-73
2021/12/20 04:26:38;;;;;;;16.47;9.10;;;7.60;99.90;;;;;;5074567;28;20532;-74
2021/12/20 04:29:04;;;;;;;11.20;8.70;;;7.60;99.90;;;;;;5074328;28;20187;-74
2021/12/20 04:31:31;;;;;;;20.10;9.60;;;7.70;99.90;;;;;;5072867;28;20187;-74
2021/12/20 04:33:56;;;;;;;16.10;9.00;;;7.70;99.90;;;;;;5073605;28;20234;-74
2021/12/20 04:36:22;;;;;;;15.60;8.97;;;7.80;99.90;;;;;;5074161;28;20184;-74
2021/12/20 04:38:48;;;;;;;14.67;9.03;;;7.90;99.90;;;;;;5074356;28;20523;-74
2021/12/20 04:41:13;;;;;;;16.77;9.73;;;7.90;99.90;;;;;;5073916;28;20694;-75
2021/12/20 04:43:39;;;;;;;15.53;8.47;;;8.00;99.90;;;;;;5074095;28;20169;-74
2021/12/20 04:46:05;;;;;;;15.27;8.50;;;7.90;99.90;;;;;;5073659;28;20177;-74
2021/12/20 04:48:31;;;;;;;18.00;9.53;;;8.00;99.90;;;;;;5071955;28;20180;-74
2021/12/20 04:50:56;;;;;;;13.53;8.40;;;8.10;99.90;;;;;;5073379;28;20177;-74
2021/12/20 04:53:22;;;;;;;17.03;8.27;;;8.10;99.90;;;;;;5072223;28;20600;-75
2021/12/20 04:55:47;;;;;;;11.73;8.37;;;8.10;99.90;;;;;;5073537;28;20222;-74
2021/12/20 04:58:14;;;;;;;12.90;7.33;;;8.00;99.90;;;;;;5073414;28;20172;-75
2021/12/20 05:00:40;;;;;;;15.77;7.73;;;7.80;99.90;;;;;;5073501;28;20236;-74
2021/12/20 05:03:07;;;;;;;18.10;7.73;;;7.80;99.90;;;;;;5073001;28;20160;-74
2021/12/20 05:05:34;;;;;;;13.87;6.90;;;7.60;99.90;;;;;;5071895;28;20180;-73
2021/12/20 05:08:00;;;;;;;12.23;6.53;;;7.50;99.90;;;;;;5073545;28;20191;-73
2021/12/20 05:10:33;;;;;;;10.73;6.30;;;7.50;99.90;;;;;;5073237;28;20199;-74
2021/12/20 05:13:02;;;;;;;17.63;6.77;;;7.50;99.90;;;;;;5073364;28;20187;-74
2021/12/20 05:15:27;;;;;;;18.93;7.07;;;7.40;99.90;;;;;;5072883;28;20735;-74
2021/12/20 05:17:54;;;;;;;14.53;6.93;;;7.50;99.90;;;;;;5072463;28;20244;-74
2021/12/20 05:20:19;;;;;;;15.63;6.87;;;7.40;99.90;;;;;;5072070;28;20350;-74
2021/12/20 05:22:45;;;;;;;13.07;6.47;;;7.40;99.90;;;;;;5073126;28;20251;-74
2021/12/20 05:25:11;;;;;;;17.77;8.07;;;7.30;99.90;;;;;;5072420;28;20287;-74
2021/12/20 05:27:37;;;;;;;15.13;6.63;;;7.40;99.90;;;;;;5071749;28;20172;-74
2021/12/20 05:30:05;;;;;;;10.97;6.87;;;7.40;99.90;;;;;;5073097;28;20219;-73
2021/12/20 05:32:31;;;;;;;15.90;7.83;;;7.50;99.90;;;;;;5072563;28;20172;-73
2021/12/20 05:34:57;;;;;;;18.00;7.07;;;7.50;99.90;;;;;;5072763;28;20271;-73
2021/12/20 05:37:22;;;;;;;16.53;7.00;;;7.50;99.90;;;;;;5073144;28;20532;-74
2021/12/20 05:39:48;;;;;;;16.07;6.47;;;7.50;99.90;;;;;;5072491;28;20192;-74
2021/12/20 05:42:14;;;;;;;13.23;7.00;;;7.50;99.90;;;;;;5072445;28;20199;-74
2021/12/20 05:44:39;;;;;;;15.17;6.80;;;7.40;99.90;;;;;;5073047;28;20259;-74
2021/12/20 05:47:05;;;;;;;15.93;6.83;;;7.40;99.90;;;;;;5072297;28;20179;-74
2021/12/20 05:49:31;;;;;;;17.87;6.70;;;7.50;99.90;;;;;;5072176;28;20636;-74
2021/12/20 05:51:58;;;;;;;13.37;6.20;;;7.40;99.90;;;;;;5070851;28;20229;-73
2021/12/20 05:54:24;;;;;;;20.00;6.47;;;7.40;99.90;;;;;;5071016;28;20628;-73
2021/12/20 05:56:49;;;;;;;13.93;5.07;;;7.40;99.90;;;;;;5072291;28;20188;-74
2021/12/20 05:59:15;;;;;;;15.73;5.80;;;7.40;99.90;;;;;;5072223;28;20196;-74
2021/12/20 06:01:41;;;;;;;12.87;4.90;;;7.30;99.90;;;;;;5072235;28;20216;-74
2021/12/20 06:04:06;;;;;;;18.83;5.47;;;7.30;99.90;;;;;;5072098;28;20198;-74
2021/12/20 06:06:32;;;;;;;14.03;4.87;;;7.30;99.90;;;;;;5072400;28;20165;-74
2021/12/20 06:08:58;;;;;;;17.87;5.53;;;7.40;99.90;;;;;;5071809;28;20173;-74
2021/12/20 06:11:24;;;;;;;14.03;5.37;;;7.30;99.90;;;;;;5071842;28;20169;-73
2021/12/20 06:13:51;;;;;;;13.73;4.90;;;7.30;99.90;;;;;;5071075;28;20195;-74
2021/12/20 06:16:17;;;;;;;16.77;5.50;;;7.40;99.90;;;;;;5071403;28;20172;-74
2021/12/20 06:18:43;;;;;;;13.90;5.30;;;7.40;99.90;;;;;;5072376;28;20687;-75
2021/12/20 06:21:09;;;;;;;16.50;5.60;;;7.40;99.90;;;;;;5071631;28;20205;-74
2021/12/20 06:23:34;;;;;;;15.10;5.57;;;7.40;99.90;;;;;;5069937;28;20244;-75
2021/12/20 06:26:00;;;;;;;16.53;5.43;;;7.50;99.90;;;;;;5071347;28;20252;-74
2021/12/20 06:28:26;;;;;;;20.57;5.50;;;7.60;99.90;;;;;;5071552;28;20176;-74
2021/12/20 06:30:52;;;;;;;18.33;5.73;;;7.70;99.90;;;;;;5071427;28;20169;-74
2021/12/20 06:33:18;;;;;;;17.60;5.57;;;7.60;99.90;;;;;;5071987;28;20179;-74
2021/12/20 06:35:45;;;;;;;12.33;5.30;;;7.70;99.90;;;;;;5071305;28;20176;-74
2021/12/20 06:38:18;;;;;;;19.90;5.57;;;7.50;99.90;;;;;;5071798;28;20176;-74
2021/12/20 06:41:02;;;;;;;14.63;5.77;;;7.60;99.90;;;;;;5074397;28;20226;-74
2021/12/20 06:43:30;;;;;;;14.67;5.87;;;7.70;99.90;;;;;;5075157;28;20172;-74
2021/12/20 06:45:56;;;;;;;15.93;5.47;;;7.80;99.90;;;;;;5075204;28;20184;-74
2021/12/20 06:48:21;;;;;;;18.93;5.43;;;7.90;99.90;;;;;;5075834;28;20233;-74
2021/12/20 06:50:47;;;;;;;28.13;5.00;;;8.10;99.90;;;;;;5073459;28;20596;-74
2021/12/20 06:53:12;;;;;;;14.87;5.90;;;8.10;99.90;;;;;;5075240;28;20172;-74
2021/12/20 06:55:38;;;;;;;14.60;5.17;;;8.10;99.90;;;;;;5074894;28;20505;-74
2021/12/20 06:58:04;;;;;;;16.53;6.03;;;8.00;99.90;;;;;;5074317;28;20317;-74
2021/12/20 07:00:30;;;;;;;18.83;5.10;;;7.80;99.90;;;;;;5074713;28;20219;-74
2021/12/20 07:02:56;;;;;;;14.87;5.23;;;7.60;99.90;;;;;;5075292;28;20584;-74
2021/12/20 07:05:22;;;;;;;18.77;5.33;;;7.50;99.90;;;;;;5075230;28;20170;-74
2021/12/20 07:07:48;;;;;;;25.30;5.37;;;7.60;99.90;;;;;;5074525;28;20206;-74
2021/12/20 07:10:13;;;;;;;19.70;4.93;;;7.60;99.90;;;;;;5074259;28;20169;-73
2021/12/20 07:12:39;;;;;;;19.07;5.20;;;7.60;99.90;;;;;;5074835;28;20179;-73
2021/12/20 07:15:09;;;;;;;24.10;5.87;;;7.70;99.90;;;;;;5075172;28;20215;-74
2021/12/20 07:17:35;;;;;;;20.97;5.60;;;7.60;99.90;;;;;;5075059;28;20255;-74
2021/12/20 07:20:00;;;;;;;17.97;4.80;;;7.60;99.90;;;;;;5074614;28;20252;-74
2021/12/20 07:22:26;;;;;;;19.90;5.00;;;7.40;99.90;;;;;;5074964;28;20169;-74
2021/12/20 07:24:52;;;;;;;15.50;4.43;;;7.50;99.90;;;;;;5074260;28;20217;-75
2021/12/20 07:27:18;;;;;;;13.83;4.30;;;7.50;99.90;;;;;;5074244;28;20577;-74
2021/12/20 07:29:44;;;;;;;16.37;3.73;;;7.40;99.90;;;;;;5074577;28;20163;-74
2021/12/20 07:32:11;;;;;;;19.60;3.63;;;7.40;99.90;;;;;;5074989;28;20164;-74
2021/12/20 07:34:38;;;;;;;13.37;3.73;;;7.30;99.90;;;;;;5074186;28;20202;-74
2021/12/20 07:37:05;;;;;;;15.47;3.77;;;7.30;99.90;;;;;;5074633;28;20187;-74
2021/12/20 07:39:30;;;;;;;18.00;4.00;;;7.30;99.90;;;;;;5074168;28;20175;-74
2021/12/20 07:41:56;;;;;;;21.23;4.40;;;7.40;99.90;;;;;;5073761;28;20212;-74
2021/12/20 07:44:23;;;;;;;14.40;3.70;;;7.40;99.90;;;;;;5074243;28;20249;-74
2021/12/20 07:46:50;;;;;;;13.83;3.37;;;7.40;99.90;;;;;;5074433;28;20330;-74
2021/12/20 07:49:16;;;;;;;14.83;3.47;;;7.40;99.90;;;;;;5074054;28;20196;-75
2021/12/20 07:51:42;;;;;;;14.70;3.60;;;7.40;99.90;;;;;;5072307;28;20187;-74
2021/12/20 07:54:08;;;;;;;19.57;3.90;;;7.40;99.90;;;;;;5063129;28;20531;-76
2021/12/20 07:56:34;;;;;;;13.37;3.40;;;7.40;99.90;;;;;;5069032;28;20185;-75
2021/12/20 07:59:02;;;;;;;14.30;3.53;;;7.40;99.90;;;;;;5070044;28;20284;-75
2021/12/20 08:01:27;;;;;;;17.97;3.60;;;7.40;99.90;;;;;;5071504;28;20207;-74
2021/12/20 08:03:54;;;;;;;23.20;3.83;;;7.30;99.90;;;;;;5073674;28;20173;-75
2021/12/20 08:06:20;;;;;;;16.37;3.43;;;7.30;99.90;;;;;;5072211;28;20202;-75
2021/12/20 08:08:46;;;;;;;15.40;3.87;;;7.30;99.90;;;;;;5073040;28;20173;-76
2021/12/20 08:11:11;;;;;;;22.97;3.43;;;7.40;99.90;;;;;;5072474;28;20527;-76
2021/12/20 08:13:44;;;;;;;21.93;4.57;;;7.30;99.90;;;;;;5072995;28;20283;-75
2021/12/20 08:16:28;;;;;;;10.67;3.47;;;7.40;99.90;;;;;;5079599;28;20581;-75
2021/12/20 08:18:53;;;;;;;20.77;4.50;;;7.40;99.90;;;;;;5073202;28;20263;-74
2021/12/20 08:21:21;;;;;;;18.27;4.17;;;7.30;99.90;;;;;;5072824;28;20296;-74
2021/12/20 08:23:46;;;;;;;18.87;4.10;;;7.40;99.90;;;;;;5073091;28;20172;-74
2021/12/20 08:26:12;;;;;;;17.23;3.97;;;7.40;99.90;;;;;;5078512;28;20216;-74
2021/12/20 08:28:38;;;;;;;17.67;4.43;;;7.30;99.90;;;;;;5073494;28;20697;-75
2021/12/20 08:31:05;;;;;;;13.03;4.80;;;7.30;99.90;;;;;;5078657;28;20230;-75
2021/12/20 08:33:32;;;;;;;23.33;5.93;;;7.40;99.90;;;;;;5072173;28;20204;-74
2021/12/20 08:35:59;;;;;;;22.87;4.90;;;7.30;99.90;;;;;;5073955;28;20172;-74
2021/12/20 08:38:28;;;;;;;19.10;6.03;;;7.30;99.90;;;;;;5081731;28;20169;-76
2021/12/20 08:40:56;;;;;;;18.47;4.13;;;7.30;99.90;;;;;;5083543;28;20216;-75
2021/12/20 08:43:22;;;;;;;16.20;3.27;;;7.30;99.90;;;;;;5073106;28;20188;-75
2021/12/20 08:45:48;;;;;;;15.13;4.30;;;7.30;99.90;;;;;;5072189;28;20173;-74
2021/12/20 08:48:14;;;;;;;17.37;4.00;;;7.30;99.90;;;;;;5072247;28;20225;-74
2021/12/20 08:50:40;;;;;;;17.07;3.67;;;7.30;99.90;;;;;;5072043;28;20196;-74
2021/12/20 08:53:07;;;;;;;17.30;4.30;;;7.40;99.90;;;;;;5086052;28;20172;-74
2021/12/20 08:55:35;;;;;;;18.77;3.20;;;7.40;99.90;;;;;;5081054;28;20176;-75
2021/12/20 08:58:01;;;;;;;17.30;3.50;;;7.40;99.90;;;;;;5071251;28;20248;-75
2021/12/20 09:00:29;;;;;;;22.23;4.13;;;7.30;99.90;;;;;;5072090;28;20304;-75
2021/12/20 09:02:55;;;;;;;15.27;3.57;;;7.40;99.90;;;;;;5070333;28;20179;-75
2021/12/20 09:05:31;;;;;;;15.23;3.17;;;7.40;99.90;;;;;;5078613;28;20176;-75
2021/12/20 09:08:00;;;;;;;14.37;3.40;;;7.40;99.90;;;;;;5072560;28;20221;-75
2021/12/20 09:10:27;;;;;;;19.53;3.77;;;7.50;99.90;;;;;;5072509;28;20176;-75
2021/12/20 09:12:53;;;;;;;18.73;3.90;;;7.50;99.90;;;;;;5081454;28;20213;-74
2021/12/20 09:15:19;;;;;;;16.70;3.83;;;7.60;99.90;;;;;;5079469;28;20172;-74
2021/12/20 09:17:52;;;;;;;18.37;3.97;;;7.60;99.90;;;;;;5079871;28;20200;-75
2021/12/20 09:20:21;;;;;;;21.87;4.07;;;7.80;99.90;;;;;;5084426;28;20184;-74
2021/12/20 09:22:52;;;;;;;15.93;3.27;;;7.70;99.90;;;;;;5071721;28;20185;-75
2021/12/20 09:25:27;;;;;;;15.97;3.40;;;7.70;99.90;;;;;;5072667;28;20208;-74
2021/12/20 09:27:54;;;;;;;22.33;3.50;;;7.80;99.90;;;;;;5071188;28;20523;-75
2021/12/20 09:30:21;;;;;;;16.63;4.03;;;7.90;99.90;;;;;;5072054;28;20639;-74
2021/12/20 09:32:47;;;;;;;11.80;3.90;;;7.90;99.90;;;;;;5071799;28;20257;-74
2021/12/20 09:35:13;;;;;;;18.20;4.67;;;7.90;99.90;;;;;;5067497;28;20172;-73
2021/12/20 09:37:39;;;;;;;18.23;4.60;;;7.90;99.90;;;;;;5069530;28;20180;-75
2021/12/20 09:40:08;;;;;;;16.73;3.27;;;8.00;99.90;;;;;;5071383;28;20169;-75
2021/12/20 09:42:34;;;;;;;13.23;3.33;;;7.90;99.90;;;;;;5071605;28;20161;-74
2021/12/20 09:45:01;;;;;;;18.30;4.10;;;7.80;99.90;;;;;;5072037;28;20183;-76
2021/12/20 09:47:33;;;;;;;21.10;4.57;;;7.90;99.90;;;;;;5071264;28;20222;-74
2021/12/20 09:50:03;;;;;;;16.33;3.83;;;8.00;99.90;;;;;;5070222;28;20683;-73
2021/12/20 09:52:28;;;;;;;21.57;4.33;;;8.10;99.90;;;;;;5073350;28;20563;-74
2021/12/20 09:54:54;;;;;;;30.37;4.77;;;8.20;99.90;;;;;;5071980;28;20545;-75
2021/12/20 09:57:21;;;;;;;17.47;4.80;;;8.30;99.90;;;;;;5071378;28;20164;-75
2021/12/20 09:59:50;;;;;;;19.63;4.77;;;8.40;99.90;;;;;;5072467;28;20188;-76
2021/12/20 10:02:18;;;;;;;15.60;4.40;;;8.40;99.90;;;;;;5071221;28;20200;-74
2021/12/20 10:04:44;;;;;;;15.80;4.23;;;8.40;99.90;;;;;;5070204;28;20507;-74
2021/12/20 10:07:11;;;;;;;18.80;4.37;;;8.50;99.90;;;;;;5078594;28;20182;-74
2021/12/20 10:09:40;;;;;;;13.63;3.90;;;8.50;99.90;;;;;;5072295;28;20218;-75
2021/12/20 10:12:19;;;;;;;19.00;3.90;;;8.40;99.90;;;;;;5070062;28;20172;-75
2021/12/20 10:15:05;;;;;;;16.40;3.63;;;8.20;99.90;;;;;;5072394;28;20168;-73
2021/12/20 10:17:36;;;;;;;18.77;4.03;;;8.10;99.90;;;;;;5075223;28;20175;-73
2021/12/20 10:20:16;;;;;;;17.37;3.80;;;8.00;99.90;;;;;;5083735;28;20176;-75
2021/12/20 10:22:42;;;;;;;14.53;4.33;;;8.10;99.90;;;;;;5075087;28;20168;-75
2021/12/20 10:25:29;;;;;;;17.57;3.50;;;8.20;99.90;;;;;;5075398;28;20242;-75
2021/12/20 10:28:08;;;;;;;14.33;4.03;;;8.10;99.90;;;;;;5061194;28;20184;-76
2021/12/20 10:30:40;;;;;;;12.77;4.10;;;8.00;99.90;;;;;;5085413;28;20643;-75
2021/12/20 10:33:11;;;;;;;15.27;3.73;;;8.00;99.90;;;;;;5076268;28;20176;-75
2021/12/20 10:35:42;;;;;;;17.93;3.97;;;8.00;99.90;;;;;;5073007;28;20753;-75
2021/12/20 10:38:23;;;;;;;18.00;3.77;;;8.00;99.90;;;;;;5074525;28;20214;-74
2021/12/20 10:41:02;;;;;;;18.53;4.07;;;8.10;99.90;;;;;;5075617;28;20274;-75
2021/12/20 10:43:36;;;;;;;18.70;4.40;;;8.00;99.90;;;;;;5072923;28;20191;-73
2021/12/20 10:46:10;;;;;;;19.87;4.47;;;8.00;99.90;;;;;;5074711;28;20252;-76
2021/12/20 10:48:35;;;;;;;17.77;4.03;;;8.20;99.90;;;;;;5074989;28;20355;-75
2021/12/20 10:51:02;;;;;;;16.60;3.40;;;8.30;99.90;;;;;;5075060;28;20282;-75
2021/12/20 10:53:28;;;;;;;18.90;4.20;;;8.30;99.90;;;;;;5075598;28;20650;-75
2021/12/20 10:56:03;;;;;;;13.53;4.10;;;8.50;99.90;;;;;;5075451;28;20255;-74
2021/12/20 10:58:36;;;;;;;10.77;3.40;;;8.50;99.90;;;;;;5075448;28;20241;-74
2021/12/20 11:01:19;;;;;;;21.50;5.20;;;8.40;99.90;;;;;;5075354;28;20307;-73
2021/12/20 11:04:03;;;;;;;14.80;3.77;;;8.40;99.90;;;;;;5075223;28;20215;-74
2021/12/20 11:06:45;;;;;;;16.63;4.30;;;8.30;99.90;;;;;;5074284;28;20603;-74
2021/12/20 11:09:15;;;;;;;12.73;3.80;;;8.20;99.90;;;;;;5074895;28;20168;-74
2021/12/20 11:11:48;;;;;;;20.90;4.77;;;8.20;99.90;;;;;;5075582;28;20160;-76
2021/12/20 11:14:14;;;;;;;15.63;3.30;;;8.20;99.90;;;;;;5075446;28;20230;-74
2021/12/20 11:16:49;;;;;;;17.47;4.00;;;8.30;99.90;;;;;;5073229;28;20588;-74
2021/12/20 11:19:38;;;;;;;10.87;3.33;;;8.30;99.90;;;;;;5074836;28;20207;-74
2021/12/20 11:22:12;;;;;;;14.77;3.57;;;8.20;99.90;;;;;;5073613;28;20209;-74
2021/12/20 11:24:53;;;;;;;19.90;3.77;;;8.20;99.90;;;;;;5074829;28;20212;-73
2021/12/20 11:27:30;;;;;;;14.23;3.50;;;8.10;99.90;;;;;;5073106;28;20165;-74
2021/12/20 11:29:57;;;;;;;15.03;3.27;;;8.00;99.90;;;;;;5075130;28;20534;-75
2021/12/20 11:32:24;;;;;;;15.20;3.60;;;8.00;99.90;;;;;;5074234;28;20165;-75
2021/12/20 11:34:50;;;;;;;10.83;3.80;;;7.90;99.90;;;;;;5074508;28;20165;-75
2021/12/20 11:37:19;;;;;;;12.10;3.40;;;8.00;99.90;;;;;;5074445;28;20322;-75
2021/12/20 11:39:46;;;;;;;12.90;3.67;;;8.00;99.90;;;;;;5074035;28;20176;-74
2021/12/20 11:42:14;;;;;;;15.90;3.73;;;7.90;99.90;;;;;;5074401;28;20243;-74
2021/12/20 11:44:44;;;;;;;15.47;3.77;;;7.90;99.90;;;;;;5074682;28;20173;-75
2021/12/20 11:47:27;;;;;;;17.07;3.20;;;8.00;99.90;;;;;;5074243;28;20165;-75
2021/12/20 11:50:14;;;;;;;13.83;3.50;;;8.10;99.90;;;;;;5073905;28;20177;-76
2021/12/20 11:52:45;;;;;;;19.23;4.30;;;8.10;99.90;;;;;;5073615;28;20169;-75
2021/12/20 11:55:26;;;;;;;12.83;3.50;;;8.10;99.90;;;;;;5074678;28;20183;-74
2021/12/20 11:57:55;;;;;;;10.53;3.30;;;8.00;99.90;;;;;;5074017;28;20179;-75
2021/12/20 12:00:20;;;;;;;20.57;4.47;;;8.00;99.90;;;;;;5074020;28;20227;-74
2021/12/20 12:02:48;;;;;;;16.77;4.10;;;8.10;99.90;;;;;;5073773;28;20659;-75
2021/12/20 12:05:39;;;;;;;13.13;3.50;;;8.10;99.90;;;;;;5073884;28;20164;-74
2021/12/20 12:08:33;;;;;;;8.47;3.57;;;8.10;99.90;;;;;;5074297;28;20196;-74
2021/12/20 12:11:08;;;;;;;17.10;3.83;;;7.90;99.90;;;;;;5072662;28;20506;-74
2021/12/20 12:14:00;;;;;;;14.40;4.23;;;7.90;99.90;;;;;;5073911;28;20318;-75
2021/12/20 12:17:08;;;;;;;15.03;3.53;;;8.10;99.90;;;;;;5073756;28;20195;-75
2021/12/20 12:19:42;;;;;;;15.57;4.03;;;8.00;99.90;;;;;;4992104;28;20246;-75
2021/12/20 12:22:41;;;;;;;12.47;3.57;;;8.00;99.90;;;;;;4992710;28;20230;-74
2021/12/20 12:25:38;;;;;;;11.63;2.90;;;8.00;99.90;;;;;;4975133;28;20701;-74
2021/12/20 12:28:04;;;;;;;10.60;3.20;;;8.00;99.50;;;;;;4976125;28;20551;-74
2021/12/20 12:30:31;;;;;;;15.83;3.20;;;8.00;99.30;;;;;;4991925;28;20190;-74
2021/12/20 12:33:03;;;;;;;11.87;3.17;;;8.10;99.40;;;;;;4990935;28;20262;-76
2021/12/20 12:35:42;;;;;;;15.17;3.37;;;8.00;98.80;;;;;;4976323;28;20180;-74
2021/12/20 12:38:14;;;;;;;10.10;2.50;;;8.10;98.50;;;;;;4991251;28;20179;-74
2021/12/20 12:40:40;;;;;;;9.83;2.90;;;8.00;97.90;;;;;;4991222;28;20203;-74
2021/12/20 12:43:06;;;;;;;16.17;2.57;;;7.90;97.80;;;;;;4991815;28;20186;-74
2021/12/20 12:45:51;;;;;;;16.07;5.50;;;8.00;97.30;;;;;;4991553;28;20183;-75
2021/12/20 12:48:40;;;;;;;10.57;2.60;;;8.10;97.70;;;;;;4991853;28;20734;-74
2021/12/20 12:51:17;;;;;;;11.67;3.03;;;8.20;97.10;;;;;;4991322;28;20167;-74
2021/12/20 12:53:54;;;;;;;17.10;3.30;;;8.30;97.10;;;;;;5042150;28;20184;-75
2021/12/20 12:56:34;;;;;;;10.03;2.63;;;8.40;96.30;;;;;;5073331;28;20190;-74
2021/12/20 12:59:12;;;;;;;11.33;3.13;;;8.20;96.70;;;;;;5071394;28;20207;-74
2021/12/20 13:01:47;;;;;;;12.70;2.53;;;8.20;96.80;;;;;;5073048;28;20215;-74
2021/12/20 13:04:13;;;;;;;7.80;2.50;;;8.30;96.50;;;;;;5072507;28;20259;-73
2021/12/20 13:06:38;;;;;;;9.30;2.50;;;8.00;96.30;;;;;;5072503;28;20208;-74
2021/12/20 13:09:04;;;;;;;6.33;2.63;;;7.80;96.90;;;;;;5072814;28;20176;-73